createdAt,value
2018-08-11T00:00:32.775Z,0
2018-08-11T00:01:33.338Z,0
2018-08-11T00:02:33.899Z,0
2018-08-11T00:03:34.464Z,0
2018-08-11T00:04:35.049Z,0
2018-08-11T00:05:35.613Z,0
2018-08-11T00:06:36.177Z,0
2018-08-11T00:07:36.743Z,0
2018-08-11T00:08:37.303Z,0
2018-08-11T00:09:37.868Z,0
2018-08-11T00:10:38.431Z,0
2018-08-11T00:11:38.994Z,0
2018-08-11T00:12:39.556Z,0
2018-08-11T00:13:40.120Z,0
2018-08-11T00:14:40.681Z,0
2018-08-11T00:15:41.265Z,0
2018-08-11T00:16:41.828Z,0
2018-08-11T00:17:42.391Z,0
2018-08-11T00:18:42.954Z,0
2018-08-11T00:19:43.517Z,0
2018-08-11T00:20:44.079Z,0
2018-08-11T00:21:44.640Z,0
2018-08-11T00:22:45.224Z,0
2018-08-11T00:23:45.786Z,0
2018-08-11T00:24:46.350Z,0
2018-08-11T00:25:46.912Z,0
2018-08-11T00:26:47.475Z,0
2018-08-11T00:27:48.038Z,0
2018-08-11T00:28:48.600Z,0
2018-08-11T00:29:49.163Z,0
2018-08-11T00:30:49.724Z,0
2018-08-11T00:31:50.285Z,0
2018-08-11T00:32:50.851Z,0
2018-08-11T00:33:51.411Z,0
2018-08-11T00:34:51.974Z,0
2018-08-11T00:35:52.558Z,0
2018-08-11T00:36:53.122Z,0
2018-08-11T00:37:53.685Z,0
2018-08-11T00:38:54.247Z,0
2018-08-11T00:39:54.828Z,0
2018-08-11T00:40:55.390Z,0
2018-08-11T00:41:55.953Z,0
2018-08-11T00:42:56.516Z,0
2018-08-11T00:43:57.082Z,0
2018-08-11T00:44:57.641Z,0
2018-08-11T00:45:58.207Z,0
2018-08-11T00:46:58.764Z,0
2018-08-11T00:47:59.329Z,0
2018-08-11T00:48:59.890Z,0
2018-08-11T00:50:00.454Z,0
2018-08-11T00:51:01.038Z,0
2018-08-11T00:52:01.603Z,0
2018-08-11T00:53:02.199Z,0
2018-08-11T00:54:02.763Z,0
2018-08-11T00:55:03.327Z,0
2018-08-11T00:56:03.889Z,0
2018-08-11T00:57:04.453Z,0
2018-08-11T00:58:05.014Z,0
2018-08-11T00:59:05.618Z,0
2018-08-11T01:00:06.182Z,0
2018-08-11T01:01:06.744Z,0
2018-08-11T01:02:07.307Z,0
2018-08-11T01:03:07.869Z,0
2018-08-11T01:04:08.432Z,0
2018-08-11T01:05:09.013Z,0
2018-08-11T01:06:09.596Z,0
2018-08-11T01:07:10.159Z,0
2018-08-11T01:08:10.741Z,0
2018-08-11T01:09:11.302Z,0
2018-08-11T01:10:11.864Z,0
2018-08-11T01:11:12.426Z,0
2018-08-11T01:12:12.987Z,0
2018-08-11T01:13:13.549Z,0
2018-08-11T01:14:14.113Z,0
2018-08-11T01:15:14.673Z,0
2018-08-11T01:16:15.236Z,0
2018-08-11T01:17:15.794Z,0
2018-08-11T01:18:16.356Z,0
2018-08-11T01:19:16.939Z,0
2018-08-11T01:20:17.500Z,0
2018-08-11T01:21:18.062Z,0
2018-08-11T01:22:18.624Z,0
2018-08-11T01:23:19.203Z,0
2018-08-11T01:24:19.787Z,0
2018-08-11T01:25:20.348Z,0
2018-08-11T01:26:20.909Z,0
2018-08-11T01:27:21.491Z,0
2018-08-11T01:28:22.052Z,0
2018-08-11T01:29:22.614Z,0
2018-08-11T01:30:23.174Z,0
2018-08-11T01:31:23.733Z,0
2018-08-11T01:32:24.291Z,0
2018-08-11T01:33:24.872Z,0
2018-08-11T01:34:25.454Z,0
2018-08-11T01:35:25.995Z,0
2018-08-11T01:36:26.554Z,0
2018-08-11T01:37:27.114Z,0
2018-08-11T01:38:27.675Z,0
2018-08-11T01:39:28.238Z,0
2018-08-11T01:40:28.822Z,0
2018-08-11T01:41:29.380Z,0
2018-08-11T01:42:29.941Z,0
2018-08-11T01:43:30.506Z,0
2018-08-11T01:44:31.088Z,0
2018-08-11T01:45:31.656Z,0
2018-08-11T01:46:32.209Z,0
2018-08-11T01:47:32.772Z,0
2018-08-11T01:48:33.354Z,0
2018-08-11T01:49:33.913Z,0
2018-08-11T01:50:34.473Z,0
2018-08-11T01:51:35.036Z,0
2018-08-11T01:52:35.597Z,0
2018-08-11T01:53:36.159Z,0
2018-08-11T01:54:36.720Z,0
2018-08-11T01:55:37.280Z,0
2018-08-11T01:56:37.842Z,0
2018-08-11T01:57:38.401Z,0
2018-08-11T01:58:38.962Z,0
2018-08-11T01:59:39.525Z,0
2018-08-11T02:00:40.090Z,0
2018-08-11T02:01:40.650Z,0
2018-08-11T02:02:41.212Z,0
2018-08-11T02:03:41.771Z,0
2018-08-11T02:04:42.332Z,0
2018-08-11T02:05:42.893Z,0
2018-08-11T02:06:43.456Z,0
2018-08-11T02:07:44.016Z,0
2018-08-11T02:08:44.577Z,0
2018-08-11T02:09:45.139Z,0
2018-08-11T02:10:45.700Z,0
2018-08-11T02:11:46.282Z,0
2018-08-11T02:12:46.843Z,0
2018-08-11T02:13:47.406Z,0
2018-08-11T02:14:47.966Z,0
2018-08-11T02:15:48.527Z,0
2018-08-11T02:16:49.111Z,0
2018-08-11T02:17:49.671Z,0
2018-08-11T02:18:50.230Z,0
2018-08-11T02:19:50.792Z,0
2018-08-11T02:20:51.352Z,0
2018-08-11T02:21:51.913Z,0
2018-08-11T02:22:52.475Z,0
2018-08-11T02:23:53.036Z,0
2018-08-11T02:24:53.667Z,0
2018-08-11T02:25:54.160Z,0
2018-08-11T02:26:54.743Z,0
2018-08-11T02:27:55.305Z,0
2018-08-11T02:28:55.865Z,0
2018-08-11T02:29:56.426Z,0
2018-08-11T02:30:56.990Z,0
2018-08-11T02:31:57.570Z,0
2018-08-11T02:32:58.130Z,0
2018-08-11T02:33:58.692Z,0
2018-08-11T02:34:59.253Z,0
2018-08-11T02:35:59.811Z,0
2018-08-11T02:37:00.423Z,0
2018-08-11T02:38:00.983Z,0
2018-08-11T02:39:01.547Z,0
2018-08-11T02:40:02.129Z,0
2018-08-11T02:41:02.689Z,0
2018-08-11T02:42:03.252Z,0
2018-08-11T02:43:03.944Z,0
2018-08-11T02:44:04.485Z,0
2018-08-11T02:45:05.050Z,0
2018-08-11T02:46:05.611Z,0
2018-08-11T02:47:06.168Z,0
2018-08-11T02:48:06.730Z,0
2018-08-11T02:49:07.292Z,0
2018-08-11T02:50:07.863Z,0
2018-08-11T02:51:08.415Z,0
2018-08-11T02:52:08.976Z,0
2018-08-11T02:53:09.537Z,0
2018-08-11T02:54:10.100Z,0
2018-08-11T02:55:10.661Z,0
2018-08-11T02:56:11.220Z,0
2018-08-11T02:57:11.782Z,0
2018-08-11T02:58:12.342Z,0
2018-08-11T02:59:12.905Z,0
2018-08-11T03:00:13.465Z,0
2018-08-11T03:01:14.025Z,0
2018-08-11T03:02:14.586Z,0
2018-08-11T03:03:15.148Z,0
2018-08-11T03:04:15.709Z,0
2018-08-11T03:05:16.289Z,0
2018-08-11T03:06:16.851Z,0
2018-08-11T03:07:17.410Z,0
2018-08-11T03:08:17.974Z,0
2018-08-11T03:09:18.531Z,0
2018-08-11T03:10:19.097Z,0
2018-08-11T03:11:19.655Z,0
2018-08-11T03:12:20.216Z,0
2018-08-11T03:13:20.775Z,0
2018-08-11T03:14:21.336Z,0
2018-08-11T03:15:21.916Z,0
2018-08-11T03:16:22.477Z,0
2018-08-11T03:17:23.037Z,0
2018-08-11T03:18:23.597Z,0
2018-08-11T03:19:24.157Z,0
2018-08-11T03:20:24.718Z,0
2018-08-11T03:21:25.278Z,0
2018-08-11T03:22:25.839Z,0
2018-08-11T03:23:26.399Z,0
2018-08-11T03:24:26.961Z,0
2018-08-11T03:25:27.543Z,0
2018-08-11T03:26:28.103Z,0
2018-08-11T03:27:28.666Z,0
2018-08-11T03:28:29.226Z,0
2018-08-11T03:29:29.789Z,0
2018-08-11T03:30:30.348Z,0
2018-08-11T03:31:30.931Z,0
2018-08-11T03:32:31.497Z,0
2018-08-11T03:33:32.052Z,0
2018-08-11T03:34:32.612Z,0
2018-08-11T03:35:33.173Z,0
2018-08-11T03:36:33.736Z,0
2018-08-11T03:37:34.296Z,0
2018-08-11T03:38:34.855Z,0
2018-08-11T03:39:35.414Z,0
2018-08-11T03:40:35.981Z,0
2018-08-11T03:41:36.543Z,0
2018-08-11T03:42:37.103Z,0
2018-08-11T03:43:37.686Z,0
2018-08-11T03:44:38.250Z,0
2018-08-11T03:45:38.806Z,0
2018-08-11T03:46:39.372Z,0
2018-08-11T03:47:39.934Z,0
2018-08-11T03:48:40.495Z,0
2018-08-11T03:49:41.064Z,0
2018-08-11T03:50:41.644Z,0
2018-08-11T03:51:42.207Z,0
2018-08-11T03:52:42.764Z,0
2018-08-11T03:53:43.324Z,0
2018-08-11T03:54:43.908Z,0
2018-08-11T03:55:44.469Z,0
2018-08-11T03:56:45.031Z,0
2018-08-11T03:57:45.592Z,0
2018-08-11T03:58:46.154Z,0
2018-08-11T03:59:46.717Z,0
2018-08-11T04:00:47.278Z,0
2018-08-11T04:01:47.839Z,0
2018-08-11T04:02:48.405Z,0
2018-08-11T04:03:48.964Z,0
2018-08-11T04:04:49.528Z,0
2018-08-11T04:05:50.093Z,0
2018-08-11T04:06:50.654Z,5
2018-08-11T04:07:51.276Z,5
2018-08-11T04:08:51.802Z,5
2018-08-11T04:09:52.384Z,5
2018-08-11T04:10:52.968Z,5
2018-08-11T04:11:53.531Z,5
2018-08-11T04:12:54.095Z,5
2018-08-11T04:13:54.660Z,10
2018-08-11T04:14:55.227Z,10
2018-08-11T04:15:55.793Z,10
2018-08-11T04:16:56.351Z,10
2018-08-11T04:17:56.937Z,10
2018-08-11T04:18:57.500Z,10
2018-08-11T04:19:58.087Z,15
2018-08-11T04:20:58.650Z,15
2018-08-11T04:21:59.215Z,15
2018-08-11T04:22:59.779Z,15
2018-08-11T04:24:00.340Z,20
2018-08-11T04:25:00.904Z,20
2018-08-11T04:26:01.467Z,20
2018-08-11T04:27:02.029Z,25
2018-08-11T04:28:02.617Z,25
2018-08-11T04:29:03.179Z,25
2018-08-11T04:30:03.764Z,30
2018-08-11T04:31:04.328Z,30
2018-08-11T04:32:04.896Z,30
2018-08-11T04:33:05.457Z,30
2018-08-11T04:34:06.029Z,35
2018-08-11T04:35:06.588Z,35
2018-08-11T04:36:07.153Z,35
2018-08-11T04:37:07.718Z,40
2018-08-11T04:38:08.284Z,40
2018-08-11T04:39:08.865Z,40
2018-08-11T04:40:09.431Z,45
2018-08-11T04:41:09.996Z,45
2018-08-11T04:42:10.560Z,45
2018-08-11T04:43:11.277Z,50
2018-08-11T04:44:11.807Z,50
2018-08-11T04:45:12.373Z,50
2018-08-11T04:46:12.939Z,55
2018-08-11T04:47:13.505Z,55
2018-08-11T04:48:14.070Z,60
2018-08-11T04:49:14.634Z,60
2018-08-11T04:50:15.199Z,65
2018-08-11T04:51:15.764Z,70
2018-08-11T04:52:16.328Z,70
2018-08-11T04:53:16.894Z,70
2018-08-11T04:54:17.460Z,75
2018-08-11T04:55:18.027Z,75
2018-08-11T04:56:18.593Z,75
2018-08-11T04:57:19.178Z,75
2018-08-11T04:58:19.743Z,80
2018-08-11T04:59:20.309Z,80
2018-08-11T05:00:20.876Z,80
2018-08-11T05:01:21.438Z,85
2018-08-11T05:02:22.003Z,90
2018-08-11T05:03:22.568Z,85
2018-08-11T05:04:23.133Z,85
2018-08-11T05:05:23.699Z,85
2018-08-11T05:06:24.265Z,90
2018-08-11T05:07:24.851Z,95
2018-08-11T05:08:25.441Z,115
2018-08-11T05:09:26.033Z,145
2018-08-11T05:10:26.619Z,145
2018-08-11T05:11:27.187Z,145
2018-08-11T05:12:27.752Z,140
2018-08-11T05:13:28.321Z,120
2018-08-11T05:14:28.888Z,125
2018-08-11T05:15:29.455Z,145
2018-08-11T05:16:30.023Z,150
2018-08-11T05:17:30.591Z,155
2018-08-11T05:18:31.165Z,150
2018-08-11T05:19:31.752Z,150
2018-08-11T05:20:32.322Z,155
2018-08-11T05:21:32.890Z,155
2018-08-11T05:22:33.459Z,175
2018-08-11T05:23:34.029Z,170
2018-08-11T05:24:34.599Z,150
2018-08-11T05:25:35.171Z,205
2018-08-11T05:26:35.793Z,175
2018-08-11T05:27:36.363Z,240
2018-08-11T05:28:36.935Z,195
2018-08-11T05:29:37.505Z,165
2018-08-11T05:30:38.073Z,175
2018-08-11T05:31:38.641Z,170
2018-08-11T05:32:39.210Z,170
2018-08-11T05:33:39.780Z,190
2018-08-11T05:34:40.348Z,230
2018-08-11T05:35:40.917Z,250
2018-08-11T05:36:41.489Z,265
2018-08-11T05:37:42.082Z,180
2018-08-11T05:38:42.649Z,170
2018-08-11T05:39:43.219Z,245
2018-08-11T05:40:43.793Z,280
2018-08-11T05:41:44.381Z,165
2018-08-11T05:42:44.937Z,265
2018-08-11T05:43:45.507Z,280
2018-08-11T05:44:46.079Z,195
2018-08-11T05:45:46.673Z,300
2018-08-11T05:46:47.231Z,325
2018-08-11T05:47:47.805Z,310
2018-08-11T05:48:48.380Z,345
2018-08-11T05:49:48.956Z,285
2018-08-11T05:50:49.533Z,275
2018-08-11T05:51:50.128Z,315
2018-08-11T05:52:50.703Z,340
2018-08-11T05:53:51.275Z,285
2018-08-11T05:54:52.054Z,315
2018-08-11T05:55:52.657Z,260
2018-08-11T05:56:53.231Z,275
2018-08-11T05:57:53.826Z,305
2018-08-11T05:58:54.401Z,415
2018-08-11T05:59:54.974Z,290
2018-08-11T06:00:55.545Z,285
2018-08-11T06:01:56.120Z,285
2018-08-11T06:02:56.691Z,315
2018-08-11T06:03:57.320Z,330
2018-08-11T06:04:57.859Z,310
2018-08-11T06:05:58.432Z,285
2018-08-11T06:06:59.027Z,270
2018-08-11T06:07:59.594Z,255
2018-08-11T06:09:00.165Z,265
2018-08-11T06:10:00.735Z,275
2018-08-11T06:11:01.308Z,330
2018-08-11T06:12:01.900Z,300
2018-08-11T06:13:02.490Z,315
2018-08-11T06:14:03.063Z,400
2018-08-11T06:15:03.635Z,300
2018-08-11T06:16:04.208Z,425
2018-08-11T06:17:04.800Z,425
2018-08-11T06:18:05.373Z,435
2018-08-11T06:19:05.946Z,410
2018-08-11T06:20:06.522Z,480
2018-08-11T06:21:07.111Z,485
2018-08-11T06:22:07.689Z,490
2018-08-11T06:23:08.263Z,490
2018-08-11T06:24:08.837Z,495
2018-08-11T06:25:09.417Z,500
2018-08-11T06:26:09.995Z,505
2018-08-11T06:27:10.573Z,525
2018-08-11T06:28:11.154Z,535
2018-08-11T06:29:11.733Z,525
2018-08-11T06:30:12.313Z,530
2018-08-11T06:31:12.917Z,545
2018-08-11T06:32:13.543Z,545
2018-08-11T06:33:14.055Z,555
2018-08-11T06:34:14.652Z,560
2018-08-11T06:35:15.232Z,565
2018-08-11T06:36:15.814Z,575
2018-08-11T06:37:16.394Z,580
2018-08-11T06:38:16.977Z,580
2018-08-11T06:39:17.577Z,595
2018-08-11T06:40:18.157Z,605
2018-08-11T06:41:18.736Z,610
2018-08-11T06:42:19.315Z,620
2018-08-11T06:43:19.896Z,620
2018-08-11T06:44:20.477Z,630
2018-08-11T06:45:21.058Z,635
2018-08-11T06:46:21.639Z,635
2018-08-11T06:47:22.236Z,640
2018-08-11T06:48:22.803Z,650
2018-08-11T06:49:23.383Z,655
2018-08-11T06:50:23.963Z,680
2018-08-11T06:51:24.545Z,680
2018-08-11T06:52:25.123Z,675
2018-08-11T06:53:25.726Z,695
2018-08-11T06:54:26.308Z,605
2018-08-11T06:55:26.912Z,605
2018-08-11T06:56:27.474Z,775
2018-08-11T06:57:28.052Z,770
2018-08-11T06:58:28.631Z,555
2018-08-11T06:59:29.212Z,695
2018-08-11T07:00:29.791Z,725
2018-08-11T07:01:30.371Z,455
2018-08-11T07:02:30.951Z,775
2018-08-11T07:03:31.556Z,785
2018-08-11T07:04:32.139Z,805
2018-08-11T07:05:32.719Z,855
2018-08-11T07:06:33.384Z,930
2018-08-11T07:07:34.044Z,930
2018-08-11T07:08:34.607Z,935
2018-08-11T07:09:35.191Z,380
2018-08-11T07:10:35.807Z,300
2018-08-11T07:11:36.374Z,790
2018-08-11T07:12:36.955Z,285
2018-08-11T07:13:37.533Z,790
2018-08-11T07:14:38.111Z,260
2018-08-11T07:15:38.708Z,270
2018-08-11T07:16:39.285Z,860
2018-08-11T07:17:39.865Z,880
2018-08-11T07:18:40.447Z,870
2018-08-11T07:19:41.060Z,945
2018-08-11T07:20:41.641Z,1055
2018-08-11T07:21:42.221Z,1025
2018-08-11T07:22:42.800Z,955
2018-08-11T07:23:43.382Z,530
2018-08-11T07:24:43.981Z,285
2018-08-11T07:25:44.562Z,1005
2018-08-11T07:26:45.141Z,930
2018-08-11T07:27:45.719Z,960
2018-08-11T07:28:46.297Z,970
2018-08-11T07:29:46.885Z,990
2018-08-11T07:30:47.455Z,1040
2018-08-11T07:31:48.038Z,1065
2018-08-11T07:32:48.618Z,765
2018-08-11T07:33:49.368Z,325
2018-08-11T07:34:50.160Z,1045
2018-08-11T07:35:50.710Z,1040
2018-08-11T07:36:51.292Z,1035
2018-08-11T07:37:51.873Z,1050
2018-08-11T07:38:52.453Z,1060
2018-08-11T07:39:53.036Z,1070
2018-08-11T07:40:53.770Z,1080
2018-08-11T07:41:54.326Z,1090
2018-08-11T07:42:54.929Z,1100
2018-08-11T07:43:55.682Z,1115
2018-08-11T07:44:56.238Z,1175
2018-08-11T07:45:56.819Z,1170
2018-08-11T07:46:57.399Z,1145
2018-08-11T07:47:58.155Z,450
2018-08-11T07:48:58.723Z,1165
2018-08-11T07:49:59.320Z,1240
2018-08-11T07:50:59.906Z,1280
2018-08-11T07:52:00.487Z,1215
2018-08-11T07:53:01.319Z,370
2018-08-11T07:54:02.004Z,250
2018-08-11T07:55:02.583Z,270
2018-08-11T07:56:03.186Z,1195
2018-08-11T07:57:04.032Z,1210
2018-08-11T07:58:04.681Z,1215
2018-08-11T07:59:05.262Z,1260
2018-08-11T08:00:05.843Z,1280
2018-08-11T08:01:06.425Z,1295
2018-08-11T08:02:07.027Z,1320
2018-08-11T08:03:07.805Z,1340
2018-08-11T08:04:08.378Z,1320
2018-08-11T08:05:08.961Z,1305
2018-08-11T08:06:09.565Z,1345
2018-08-11T08:07:10.145Z,1370
2018-08-11T08:08:10.732Z,1370
2018-08-11T08:09:11.331Z,1395
2018-08-11T08:10:11.911Z,1410
2018-08-11T08:11:12.492Z,1315
2018-08-11T08:12:13.072Z,1430
2018-08-11T08:13:13.657Z,1425
2018-08-11T08:14:14.237Z,1455
2018-08-11T08:15:14.839Z,1495
2018-08-11T08:16:15.421Z,1540
2018-08-11T08:17:16.005Z,1565
2018-08-11T08:18:16.588Z,1535
2018-08-11T08:19:17.979Z,390
2018-08-11T08:20:19.007Z,345
2018-08-11T08:21:19.634Z,345
2018-08-11T08:22:20.587Z,520
2018-08-11T08:23:21.526Z,1400
2018-08-11T08:24:22.426Z,1475
2018-08-11T08:25:23.397Z,1505
2018-08-11T08:26:24.278Z,1510
2018-08-11T08:27:24.706Z,1495
2018-08-11T08:28:25.288Z,1485
2018-08-11T08:29:26.287Z,1485
2018-08-11T08:30:27.343Z,1500
2018-08-11T08:31:28.157Z,1510
2018-08-11T08:32:29.172Z,1530
2018-08-11T08:33:30.297Z,1575
2018-08-11T08:34:31.116Z,1560
2018-08-11T08:35:31.699Z,1570
2018-08-11T08:36:32.601Z,1640
2018-08-11T08:37:33.321Z,1665
2018-08-11T08:38:33.904Z,1685
2018-08-11T08:39:34.756Z,515
2018-08-11T08:40:35.451Z,465
2018-08-11T08:41:36.042Z,1695
2018-08-11T08:42:36.756Z,390
2018-08-11T08:43:37.256Z,1470
2018-08-11T08:44:37.842Z,1230
2018-08-11T08:45:38.419Z,1750
2018-08-11T08:46:39.057Z,1800
2018-08-11T08:47:39.645Z,1820
2018-08-11T08:48:40.970Z,1815
2018-08-11T08:49:41.678Z,500
2018-08-11T08:50:42.638Z,460
2018-08-11T08:51:43.843Z,1865
2018-08-11T08:52:44.413Z,1915
2018-08-11T08:53:45.257Z,1905
2018-08-11T08:54:45.896Z,1910
2018-08-11T08:55:46.476Z,1845
2018-08-11T08:56:47.064Z,1920
2018-08-11T08:57:47.692Z,505
2018-08-11T08:58:48.625Z,1885
2018-08-11T08:59:49.734Z,1865
2018-08-11T09:00:51.144Z,1860
2018-08-11T09:01:52.134Z,1870
2018-08-11T09:02:53.071Z,1920
2018-08-11T09:03:54.076Z,1965
2018-08-11T09:04:54.778Z,2010
2018-08-11T09:05:55.561Z,2030
2018-08-11T09:06:56.224Z,1990
2018-08-11T09:07:57.086Z,1950
2018-08-11T09:08:58.198Z,1920
2018-08-11T09:09:59.238Z,1925
2018-08-11T09:11:00.271Z,1965
2018-08-11T09:12:01.054Z,2040
2018-08-11T09:13:01.584Z,2120
2018-08-11T09:14:02.168Z,2165
2018-08-11T09:15:02.968Z,2205
2018-08-11T09:16:03.575Z,2165
2018-08-11T09:17:04.156Z,770
2018-08-11T09:18:04.738Z,2170
2018-08-11T09:19:05.341Z,2155
2018-08-11T09:20:05.923Z,2105
2018-08-11T09:21:06.545Z,2130
2018-08-11T09:22:07.124Z,2120
2018-08-11T09:23:07.907Z,2140
2018-08-11T09:24:08.634Z,2175
2018-08-11T09:25:09.133Z,525
2018-08-11T09:26:09.713Z,560
2018-08-11T09:27:10.292Z,605
2018-08-11T09:28:10.872Z,990
2018-08-11T09:29:11.474Z,635
2018-08-11T09:30:12.046Z,705
2018-08-11T09:31:12.880Z,2390
2018-08-11T09:32:13.634Z,2390
2018-08-11T09:33:14.164Z,720
2018-08-11T09:34:14.750Z,2330
2018-08-11T09:35:15.597Z,805
2018-08-11T09:36:16.487Z,485
2018-08-11T09:37:17.271Z,430
2018-08-11T09:38:17.854Z,420
2018-08-11T09:39:18.424Z,445
2018-08-11T09:40:19.343Z,710
2018-08-11T09:41:20.337Z,465
2018-08-11T09:42:21.080Z,485
2018-08-11T09:43:21.624Z,670
2018-08-11T09:44:22.202Z,2460
2018-08-11T09:45:22.781Z,2040
2018-08-11T09:46:23.358Z,670
2018-08-11T09:47:24.105Z,560
2018-08-11T09:48:24.667Z,545
2018-08-11T09:49:25.286Z,570
2018-08-11T09:50:25.845Z,2510
2018-08-11T09:51:26.424Z,1155
2018-08-11T09:52:27.003Z,2110
2018-08-11T09:53:27.579Z,2340
2018-08-11T09:54:28.162Z,2260
2018-08-11T09:55:28.764Z,2290
2018-08-11T09:56:29.362Z,2325
2018-08-11T09:57:29.942Z,2340
2018-08-11T09:58:30.522Z,2400
2018-08-11T09:59:31.100Z,2415
2018-08-11T10:00:31.679Z,2435
2018-08-11T10:01:32.258Z,1945
2018-08-11T10:02:32.837Z,760
2018-08-11T10:03:33.415Z,545
2018-08-11T10:04:34.001Z,530
2018-08-11T10:05:34.596Z,545
2018-08-11T10:06:35.175Z,675
2018-08-11T10:07:35.757Z,1345
2018-08-11T10:08:36.336Z,1235
2018-08-11T10:09:36.915Z,665
2018-08-11T10:10:37.543Z,690
2018-08-11T10:11:38.071Z,2505
2018-08-11T10:12:38.651Z,2485
2018-08-11T10:13:39.324Z,510
2018-08-11T10:14:39.992Z,480
2018-08-11T10:15:40.611Z,480
2018-08-11T10:16:41.234Z,495
2018-08-11T10:17:41.820Z,605
2018-08-11T10:18:42.396Z,2610
2018-08-11T10:19:42.975Z,2640
2018-08-11T10:20:43.554Z,2695
2018-08-11T10:21:44.135Z,2695
2018-08-11T10:22:44.720Z,2740
2018-08-11T10:23:45.317Z,2735
2018-08-11T10:24:45.897Z,2800
2018-08-11T10:25:46.500Z,2840
2018-08-11T10:26:47.082Z,2910
2018-08-11T10:27:47.662Z,870
2018-08-11T10:28:48.242Z,780
2018-08-11T10:29:48.826Z,645
2018-08-11T10:30:49.402Z,535
2018-08-11T10:31:49.980Z,510
2018-08-11T10:32:50.560Z,1475
2018-08-11T10:33:51.138Z,595
2018-08-11T10:34:51.736Z,980
2018-08-11T10:35:52.313Z,710
2018-08-11T10:36:52.893Z,1480
2018-08-11T10:37:53.490Z,2620
2018-08-11T10:38:54.069Z,2630
2018-08-11T10:39:54.666Z,2735
2018-08-11T10:40:55.251Z,2775
2018-08-11T10:41:55.830Z,2635
2018-08-11T10:42:56.410Z,2805
2018-08-11T10:43:56.992Z,2830
2018-08-11T10:44:57.573Z,2895
2018-08-11T10:45:58.154Z,2240
2018-08-11T10:46:58.786Z,2945
2018-08-11T10:47:59.321Z,2805
2018-08-11T10:48:59.900Z,2825
2018-08-11T10:50:00.481Z,2720
2018-08-11T10:51:01.063Z,2780
2018-08-11T10:52:01.647Z,2870
2018-08-11T10:53:02.248Z,2470
2018-08-11T10:54:02.827Z,860
2018-08-11T10:55:03.409Z,1645
2018-08-11T10:56:04.115Z,2340
2018-08-11T10:57:04.590Z,625
2018-08-11T10:58:05.184Z,825
2018-08-11T10:59:05.770Z,2930
2018-08-11T11:00:06.347Z,2945
2018-08-11T11:01:06.995Z,2930
2018-08-11T11:02:07.507Z,2930
2018-08-11T11:03:08.087Z,2930
2018-08-11T11:04:08.668Z,2975
2018-08-11T11:05:09.251Z,2980
2018-08-11T11:06:09.834Z,3090
2018-08-11T11:07:10.416Z,3145
2018-08-11T11:08:11.000Z,3175
2018-08-11T11:09:11.633Z,3120
2018-08-11T11:10:12.447Z,3105
2018-08-11T11:11:13.456Z,3150
2018-08-11T11:12:14.134Z,3195
2018-08-11T11:13:14.735Z,605
2018-08-11T11:14:15.688Z,615
2018-08-11T11:15:16.264Z,730
2018-08-11T11:16:16.845Z,3185
2018-08-11T11:17:17.427Z,725
2018-08-11T11:18:18.026Z,690
2018-08-11T11:19:18.604Z,665
2018-08-11T11:20:19.181Z,680
2018-08-11T11:21:19.758Z,755
2018-08-11T11:22:20.361Z,2955
2018-08-11T11:23:20.948Z,2845
2018-08-11T11:24:21.542Z,805
2018-08-11T11:25:22.141Z,750
2018-08-11T11:26:22.718Z,685
2018-08-11T11:27:23.454Z,630
2018-08-11T11:28:24.050Z,635
2018-08-11T11:29:24.625Z,745
2018-08-11T11:30:25.201Z,690
2018-08-11T11:31:25.986Z,825
2018-08-11T11:32:26.479Z,695
2018-08-11T11:33:27.342Z,625
2018-08-11T11:34:28.024Z,645
2018-08-11T11:35:28.598Z,3165
2018-08-11T11:36:29.195Z,880
2018-08-11T11:37:29.773Z,3395
2018-08-11T11:38:30.352Z,3415
2018-08-11T11:39:30.932Z,3455
2018-08-11T11:40:31.512Z,3410
2018-08-11T11:41:32.090Z,3355
2018-08-11T11:42:32.829Z,3475
2018-08-11T11:43:33.406Z,1145
2018-08-11T11:44:33.988Z,3465
2018-08-11T11:45:34.570Z,3455
2018-08-11T11:46:35.151Z,870
2018-08-11T11:47:35.751Z,2905
2018-08-11T11:48:36.334Z,2480
2018-08-11T11:49:36.912Z,3320
2018-08-11T11:50:37.490Z,765
2018-08-11T11:51:38.094Z,980
2018-08-11T11:52:38.675Z,1225
2018-08-11T11:53:39.255Z,790
2018-08-11T11:54:39.831Z,845
2018-08-11T11:55:40.406Z,845
2018-08-11T11:56:40.985Z,2320
2018-08-11T11:57:41.561Z,615
2018-08-11T11:58:42.142Z,520
2018-08-11T11:59:42.717Z,500
2018-08-11T12:00:43.296Z,1515
2018-08-11T12:01:43.873Z,1315
2018-08-11T12:02:44.450Z,3060
2018-08-11T12:03:45.026Z,3070
2018-08-11T12:04:45.627Z,3200
2018-08-11T12:05:46.260Z,2945
2018-08-11T12:06:46.783Z,965
2018-08-11T12:07:47.361Z,2220
2018-08-11T12:08:47.963Z,3045
2018-08-11T12:09:48.692Z,3045
2018-08-11T12:10:49.255Z,2950
2018-08-11T12:11:49.831Z,2915
2018-08-11T12:12:50.410Z,3280
2018-08-11T12:13:50.990Z,3275
2018-08-11T12:14:51.571Z,2800
2018-08-11T12:15:52.148Z,3160
2018-08-11T12:16:52.727Z,2980
2018-08-11T12:17:53.307Z,3020
2018-08-11T12:18:53.886Z,3380
2018-08-11T12:19:54.466Z,3295
2018-08-11T12:20:55.047Z,3275
2018-08-11T12:21:55.629Z,3605
2018-08-11T12:22:56.211Z,3770
2018-08-11T12:23:56.797Z,3625
2018-08-11T12:24:57.400Z,3540
2018-08-11T12:25:57.982Z,3455
2018-08-11T12:26:58.567Z,3540
2018-08-11T12:27:59.153Z,3385
2018-08-11T12:28:59.753Z,2865
2018-08-11T12:30:00.334Z,3490
2018-08-11T12:31:00.956Z,2895
2018-08-11T12:32:01.520Z,3460
2018-08-11T12:33:02.104Z,3470
2018-08-11T12:34:02.687Z,3600
2018-08-11T12:35:03.270Z,815
2018-08-11T12:36:03.854Z,710
2018-08-11T12:37:04.456Z,705
2018-08-11T12:38:05.135Z,3350
2018-08-11T12:39:06.000Z,810
2018-08-11T12:40:06.857Z,785
2018-08-11T12:41:07.677Z,970
2018-08-11T12:42:08.476Z,1010
2018-08-11T12:43:09.201Z,910
2018-08-11T12:44:09.783Z,860
2018-08-11T12:45:10.360Z,835
2018-08-11T12:46:10.939Z,775
2018-08-11T12:47:11.519Z,725
2018-08-11T12:48:12.100Z,700
2018-08-11T12:49:12.751Z,705
2018-08-11T12:50:13.398Z,705
2018-08-11T12:51:13.989Z,700
2018-08-11T12:52:14.568Z,725
2018-08-11T12:53:15.172Z,575
2018-08-11T12:54:15.753Z,540
2018-08-11T12:55:16.334Z,575
2018-08-11T12:56:16.913Z,615
2018-08-11T12:57:17.494Z,2990
2018-08-11T12:58:18.071Z,645
2018-08-11T12:59:18.823Z,670
2018-08-11T13:00:19.391Z,665
2018-08-11T13:01:19.969Z,715
2018-08-11T13:02:20.548Z,920
2018-08-11T13:03:21.128Z,735
2018-08-11T13:04:21.707Z,715
2018-08-11T13:05:22.287Z,730
2018-08-11T13:06:22.867Z,3120
2018-08-11T13:07:23.448Z,3145
2018-08-11T13:08:24.027Z,3080
2018-08-11T13:09:24.633Z,3045
2018-08-11T13:10:25.260Z,3025
2018-08-11T13:11:25.839Z,2990
2018-08-11T13:12:26.418Z,710
2018-08-11T13:13:27.002Z,3115
2018-08-11T13:14:27.784Z,3060
2018-08-11T13:15:28.606Z,3000
2018-08-11T13:16:29.233Z,3045
2018-08-11T13:17:29.812Z,3060
2018-08-11T13:18:30.392Z,3040
2018-08-11T13:19:31.309Z,1735
2018-08-11T13:20:32.192Z,530
2018-08-11T13:21:32.881Z,1880
2018-08-11T13:22:33.661Z,580
2018-08-11T13:23:34.277Z,695
2018-08-11T13:24:34.869Z,550
2018-08-11T13:25:35.451Z,2850
2018-08-11T13:26:36.029Z,2910
2018-08-11T13:27:36.608Z,1140
2018-08-11T13:28:37.217Z,915
2018-08-11T13:29:37.907Z,815
2018-08-11T13:30:38.409Z,650
2018-08-11T13:31:38.989Z,655
2018-08-11T13:32:39.569Z,740
2018-08-11T13:33:40.171Z,800
2018-08-11T13:34:41.052Z,1820
2018-08-11T13:35:41.630Z,725
2018-08-11T13:36:42.213Z,795
2018-08-11T13:37:43.089Z,675
2018-08-11T13:38:43.757Z,670
2018-08-11T13:39:44.280Z,975
2018-08-11T13:40:45.123Z,2870
2018-08-11T13:41:45.803Z,2765
2018-08-11T13:42:46.379Z,2725
2018-08-11T13:43:47.393Z,2710
2018-08-11T13:44:48.444Z,2700
2018-08-11T13:45:49.468Z,675
2018-08-11T13:46:50.445Z,2605
2018-08-11T13:47:51.212Z,925
2018-08-11T13:48:51.791Z,505
2018-08-11T13:49:52.459Z,520
2018-08-11T13:50:53.232Z,2595
2018-08-11T13:51:54.159Z,2615
2018-08-11T13:52:54.737Z,2665
2018-08-11T13:53:55.349Z,2665
2018-08-11T13:54:55.946Z,920
2018-08-11T13:55:56.526Z,2630
2018-08-11T13:56:57.107Z,2730
2018-08-11T13:57:57.890Z,2690
2018-08-11T13:58:58.868Z,2800
2018-08-11T14:00:00.114Z,2770
2018-08-11T14:01:00.874Z,2845
2018-08-11T14:02:01.902Z,645
2018-08-11T14:03:03.216Z,635
2018-08-11T14:04:04.252Z,695
2018-08-11T14:05:05.393Z,2910